Milano, Italy

08:10 AM CET del 24 Gennaio 2017 (GMT +0100)
Malpensa | | Change Station

Alt. 692 ft 45.62 °N, 8.73 °E | Updated 20 minutes ago

Clear
Sereno
27 °F
Sembra 23 °F
N
4
Vento Variabile Vento da NE

Oggi
Massima -- | Minima -- °F
--% Possibilità di precip.
Ieri
Massima -- | Minima -- °F
Precip. -- in
Pressione 30.06 in
Visibilità -9999.0 miglia
Nuvole
Raffreddamento del vento 23 °F
Punto di rugiada 18 °F
Umidità 69%
Piovosità 0.00 in
Spessore del manto nevoso Non disponibile.
7:54 AM 5:20 PM
Luna calante, 13% visible
METAR LIMC 240650Z 05003KT CAVOK M03/M08 Q1018 NOSIG
Pressione 30.06 in
Visibilità -9999.0 miglia
Nuvole
Raffreddamento del vento 23 °F
Punto di rugiada 18 °F
Umidità 69%
Piovosità 0.00 in
Spessore del manto nevoso Non disponibile.
7:54 AM 5:20 PM
Luna calante, 13% visible
METAR LIMC 240650Z 05003KT CAVOK M03/M08 Q1018 NOSIG

Get Your Daily Forecast Email!

Thanks for signing up!

Be on the lookout for a verification email in your inbox.

You'll start receiving the daily forecast at 8 AM.

×

10-Day Weather Forecast

×

Almanac

Astronomia

Jan. 24, 2017 Alba Tramonto
Ora attuale
Crepuscolo civile
Crepuscolo nautico
Crepuscolo astronomico
Luna
Estensione della luce visibile
Lunghezza del giorno
Tomorrow will be .
, % of the Moon is Illuminated

Gli estremi di oggi

Massime Regione Minime Regione

Community

WunderPhotos

Upload Photos

1,962,540 foto caricate!

WunderBlog® & News

Nearby

Qualità dell'aria

  Qualità dell'aria Indice AQ Inquinante
Not available.

Profondità neve

Stazione Profondità Altitudine

Attività sismica

Città  Distanza Mag. Data & Ora
Minimo Magnitudo Mostrato è 2.5.

Temperature delle acque costiere

Località Temperatura

Stations

Stazioni meteo nelle vicinanze

Ubicazione della stazione Temp. Raffreddamento del vento Punto di rugiada Umidità Vento Precip. Alt. Aggiornato Tipo